Airfield :







YOU CAN JOIN US ON...

 
LOGIN :

Register | Disclaimer

   EN    FR    IT 

 









Legend :    VFR   Marginal VFR   IFR   Intensive IFR   Very Intensive IFR
Visi :
Ceiling :
>= 8 km
>= 3000ft
5 to 8 km
1000 to 3000 ft
1500m to 5 km
500 to 1000 ft
800 to 1500m
200 to 500 ft
< 800m
< 200 ft
Symbols :   Thunderstorms  Fog  Heavy snow  Heavy precipitations  Wind > 20 kt






- Airport Elevation : 357 ft
- IATA code : YSJ


CYSJ - Saint John

CURRENT METAR :
  • 171900Z 27008KT 190V300 15SM FEW050TCU 20/09 A3021 RMK TCU1 SLP235 DENSITY ALT 700FT

EXPIRED METARs :
  • 171800Z 20010KT 15SM FEW050TCU FEW270 18/09 A3023 RMK TCU2CI1 CI TR SLP242 DENSITY ALT 500FT
  • 171700Z 16008G18KT 110V210 15SM FEW050TCU FEW270 18/10 A3025 RMK TCU2CI1 CI TR CB TOPS DIST E SLP245 DENSITY ALT 500FT

TAF TAF CYSJ
Valid from the 17 at 18:00 until the 18 at 06:00 UTC


171739Z 1718/1806 18010KT P6SM FEW040
FM180400 18005KT P6SM SCT002
PROB30 1804/1806 1/2SM FG VV002 RMK NXT FCST BY 180000Z
CZQM FIR / North America



MET'MAP, your aeronautical weather chart ! - Copyright ORBIFLY December 2007 - Disclaimer

ORBIFLY MET'MAP TEAM :

Programming & Development : Alexandra Zaïnal
Concept & original design : Baudouin d'Aumeries
Assistance for programming : Marc-Olivier Méhu
Technical & hardware support : Manuel Goepfert

Contact : metmap@orbifly.com




SOURCES & CREDITS :

   NOAA